Time;durP1;ratioP1;P1;durP2;ratioP2;P2;SDS_P1;SDS_P2;PMS_P1;PMS_P2;Temp;Humidity;BMP_temperature;BMP_pressure;BME280_temperature;BME280_humidity;BME280_pressure;Samples;Min_cycle;Max_cycle;Signal;HPM_P1;HPM_P2
2023/12/07 00:01:02;;;;;;;;;55.25;35.75;;;;;5.76;81.75;101619.28;5076635;28;45405;-46
2023/12/07 00:03:27;;;;;;;;;32.50;28.50;;;;;5.81;81.36;101622.47;5076166;28;45329;-47
2023/12/07 00:05:53;;;;;;;;;42.25;28.00;;;;;5.80;81.55;101626.06;5076024;28;47694;-45
2023/12/07 00:08:18;;;;;;;;;38.75;32.00;;;;;5.83;81.27;101623.25;5076572;28;45415;-44
2023/12/07 00:10:43;;;;;;;;;40.25;31.50;;;;;5.81;80.61;101616.34;5076463;28;45491;-44
2023/12/07 00:13:09;;;;;;;;;39.25;28.25;;;;;5.77;81.23;101618.31;5076356;28;46123;-43
2023/12/07 00:15:34;;;;;;;;;44.00;36.00;;;;;5.72;81.73;101623.88;5076097;28;45604;-45
2023/12/07 00:18:00;;;;;;;;;39.75;30.50;;;;;5.73;81.58;101616.81;5076184;28;45414;-45
2023/12/07 00:20:26;;;;;;;;;35.25;30.50;;;;;5.67;80.89;101599.56;5076461;28;45500;-46
2023/12/07 00:22:51;;;;;;;;;37.00;27.50;;;;;5.65;81.11;101601.47;5076134;28;45499;-43
2023/12/07 00:25:16;;;;;;;;;47.50;34.50;;;;;5.69;81.87;101597.69;5076336;28;45308;-42
2023/12/07 00:27:41;;;;;;;;;45.75;30.00;;;;;5.64;82.29;101589.19;5075391;28;45256;-44
2023/12/07 00:30:08;;;;;;;;;49.25;37.00;;;;;5.64;82.50;101586.53;5058122;28;45368;-44
2023/12/07 00:32:34;;;;;;;;;28.50;23.25;;;;;5.49;81.40;101567.22;5075638;28;45925;-41
2023/12/07 00:34:59;;;;;;;;;35.50;27.50;;;;;5.65;81.70;101579.50;5075603;28;52367;-44
2023/12/07 00:37:24;;;;;;;;;45.25;31.75;;;;;5.63;81.87;101568.19;5076090;28;45467;-44
2023/12/07 00:39:49;;;;;;;;;38.50;28.00;;;;;5.55;81.64;101566.00;5077467;28;45428;-42
2023/12/07 00:42:15;;;;;;;;;42.25;31.50;;;;;5.59;81.90;101566.66;5079260;28;46013;-43
2023/12/07 00:44:41;;;;;;;;;39.50;28.75;;;;;5.54;81.83;101580.16;5079525;28;45336;-42
2023/12/07 00:47:07;;;;;;;;;26.75;26.50;;;;;5.48;81.29;101578.75;5079164;28;45394;-44
2023/12/07 00:49:32;;;;;;;;;29.25;24.00;;;;;5.43;81.97;101583.44;5079380;28;45589;-45
2023/12/07 00:51:58;;;;;;;;;46.50;31.75;;;;;5.36;81.95;101590.03;5079402;28;47117;-43
2023/12/07 00:54:23;;;;;;;;;36.25;34.75;;;;;5.34;82.67;101586.63;5079123;28;45575;-43
2023/12/07 00:56:48;;;;;;;;;31.25;26.50;;;;;5.35;82.93;101587.47;5079426;28;45352;-45
2023/12/07 00:59:14;;;;;;;;;33.00;28.50;;;;;5.39;82.42;101584.56;5079355;28;45317;-45
2023/12/07 01:01:39;;;;;;;;;38.75;33.00;;;;;5.40;82.56;101585.44;5079010;28;46105;-44
2023/12/07 01:04:05;;;;;;;;;38.75;24.50;;;;;5.02;82.31;101525.28;5078967;28;45378;-44
2023/12/07 01:06:32;;;;;;;;;37.25;27.75;;;;;5.44;82.30;101589.56;5079215;28;45319;-44
2023/12/07 01:08:57;;;;;;;;;43.75;30.00;;;;;5.43;82.21;101585.22;5079303;28;45242;-44
2023/12/07 01:11:22;;;;;;;;;35.00;22.50;;;;;5.27;82.08;101558.94;5078685;28;46295;-43
2023/12/07 01:13:48;;;;;;;;;40.00;28.50;;;;;5.43;82.15;101588.69;5079057;28;45268;-44
2023/12/07 01:16:13;;;;;;;;;34.25;24.25;;;;;5.37;82.70;101594.38;5078186;28;45238;-46
2023/12/07 01:18:38;;;;;;;;;35.50;30.25;;;;;5.34;82.99;101596.34;5078761;28;45458;-45
2023/12/07 01:21:05;;;;;;;;;33.50;30.00;;;;;5.34;83.13;101602.44;5078570;28;47799;-43
2023/12/07 01:23:31;;;;;;;;;36.25;28.00;;;;;5.36;82.35;101605.03;5078637;28;45589;-45
2023/12/07 01:25:57;;;;;;;;;30.75;19.50;;;;;5.41;81.98;101602.94;5078654;28;45360;-45
2023/12/07 01:28:22;;;;;;;;;39.75;29.25;;;;;5.34;83.49;101591.91;5078532;28;45392;-45
2023/12/07 01:30:47;;;;;;;;;33.50;25.00;;;;;5.30;83.34;101581.63;5078664;28;46245;-42
2023/12/07 01:33:13;;;;;;;;;39.00;27.75;;;;;5.35;83.69;101571.63;5078749;28;45746;-45
2023/12/07 01:35:38;;;;;;;;;35.50;30.00;;;;;5.40;82.84;101572.22;5078810;28;45339;-45
2023/12/07 01:38:04;;;;;;;;;37.50;23.25;;;;;5.38;82.81;101567.03;5078245;28;46040;-44
2023/12/07 01:40:29;;;;;;;;;26.50;24.00;;;;;5.39;82.58;101566.06;5078373;28;47208;-45
2023/12/07 01:42:54;;;;;;;;;46.50;32.50;;;;;5.41;82.94;101566.84;5078432;28;47722;-44
2023/12/07 01:45:20;;;;;;;;;38.50;33.25;;;;;5.44;82.48;101564.03;5078445;28;45575;-44
2023/12/07 01:47:47;;;;;;;;;38.25;27.00;;;;;5.40;82.35;101556.41;5060476;28;45412;-44
2023/12/07 01:50:15;;;;;;;;;34.50;26.50;;;;;5.38;82.36;101569.66;5077928;28;46177;-44
2023/12/07 01:52:47;;;;;;;;;30.50;24.75;;;;;5.38;82.25;101577.59;5078385;28;45229;-45
2023/12/07 01:55:14;;;;;;;;;36.25;26.50;;;;;5.35;82.25;101572.50;5078252;28;45415;-43
2023/12/07 01:57:41;;;;;;;;;36.50;26.75;;;;;5.37;83.00;101569.78;5078469;28;45533;-45
2023/12/07 02:00:07;;;;;;;;;29.25;25.50;;;;;5.39;82.42;101563.44;5078100;28;45292;-46
2023/12/07 02:02:32;;;;;;;;;23.50;18.00;;;;;5.35;82.78;101558.44;5077700;28;45386;-44
2023/12/07 02:04:58;;;;;;;;;38.75;27.75;;;;;5.36;82.76;101566.28;5078266;28;45363;-44
2023/12/07 02:07:23;;;;;;;;;23.00;23.00;;;;;5.34;83.20;101572.59;5078310;28;45353;-46
2023/12/07 02:09:49;;;;;;;;;35.25;24.50;;;;;5.33;83.13;101571.75;5077941;28;49573;-45
2023/12/07 02:12:15;;;;;;;;;32.00;23.75;;;;;5.32;82.39;101577.97;5078090;28;45465;-42
2023/12/07 02:14:41;;;;;;;;;24.75;23.75;;;;;5.28;83.09;101555.34;5078176;28;45941;-44
2023/12/07 02:17:18;;;;;;;;;24.50;19.50;;;;;5.33;82.69;101566.47;5078557;28;45335;-45
2023/12/07 02:19:50;;;;;;;;;25.25;16.50;;;;;5.25;83.68;101551.09;5077485;28;46974;-43
2023/12/07 02:22:27;;;;;;;;;34.75;26.00;;;;;5.24;83.04;101554.69;5077686;28;45371;-44
2023/12/07 02:25:22;;;;;;;;;27.75;24.50;;;;;5.22;83.52;101547.78;5077295;28;45323;-43
2023/12/07 02:27:48;;;;;;;;;30.75;21.50;;;;;5.15;82.93;101536.78;5075928;28;45462;-44
2023/12/07 02:30:13;;;;;;;;;30.50;21.50;;;;;5.20;83.28;101539.97;5077541;28;46110;-43
2023/12/07 02:32:41;;;;;;;;;34.50;23.00;;;;;5.17;82.73;101529.59;5077264;28;45261;-45
2023/12/07 02:35:08;;;;;;;;;27.75;21.00;;;;;5.16;82.69;101534.97;5077985;28;45278;-47
2023/12/07 02:37:42;;;;;;;;;23.75;21.00;;;;;5.14;83.55;101529.81;5077691;28;45446;-48
2023/12/07 02:40:12;;;;;;;;;31.25;22.25;;;;;5.18;82.80;101541.00;5076685;28;45441;-46
2023/12/07 02:42:40;;;;;;;;;30.00;21.00;;;;;5.23;83.24;101537.16;5077472;28;45278;-50
2023/12/07 02:45:07;;;;;;;;;16.50;14.00;;;;;5.25;82.06;101529.16;5077775;28;45327;-46
2023/12/07 02:47:33;;;;;;;;;27.00;23.00;;;;;5.16;83.31;101529.72;5078595;28;45508;-46
2023/12/07 02:49:58;;;;;;;;;26.50;20.50;;;;;5.10;83.32;101530.94;5077442;28;45405;-46
2023/12/07 02:52:23;;;;;;;;;24.25;22.75;;;;;5.16;82.93;101540.25;5078193;28;45462;-46
2023/12/07 02:54:49;;;;;;;;;20.75;17.75;;;;;5.13;83.15;101541.28;5078167;28;45359;-46
2023/12/07 02:57:14;;;;;;;;;28.00;23.75;;;;;5.11;83.03;101543.19;5078315;28;45428;-46
2023/12/07 02:59:40;;;;;;;;;31.25;25.00;;;;;5.01;83.00;101544.66;5077669;28;46366;-45
2023/12/07 03:02:05;;;;;;;;;26.50;21.25;;;;;5.15;83.10;101557.88;5075976;28;45360;-46
2023/12/07 03:04:31;;;;;;;;;26.50;20.25;;;;;5.12;82.75;101547.50;5077842;28;45295;-45
2023/12/07 03:06:56;;;;;;;;;24.25;21.50;;;;;5.19;82.84;101571.72;5059291;28;45563;-43
2023/12/07 03:09:21;;;;;;;;;33.00;21.00;;;;;5.19;83.12;101569.94;5077067;28;48182;-42
2023/12/07 03:11:47;;;;;;;;;34.75;27.75;;;;;5.20;83.33;101573.44;5076686;28;46517;-43
2023/12/07 03:14:12;;;;;;;;;23.25;18.50;;;;;5.19;82.60;101564.66;5077059;28;45347;-44
2023/12/07 03:16:38;;;;;;;;;27.50;21.25;;;;;5.21;82.92;101525.00;5059138;28;45553;-43
2023/12/07 03:19:04;;;;;;;;;28.25;21.00;;;;;5.22;82.58;101485.34;5076882;28;45767;-43
2023/12/07 03:21:29;;;;;;;;;26.00;22.75;;;;;5.14;82.69;101469.16;5076920;28;45301;-44
2023/12/07 03:23:54;;;;;;;;;28.25;22.50;;;;;5.04;83.71;101482.97;5076990;28;45610;-45
2023/12/07 03:26:20;;;;;;;;;32.00;22.75;;;;;4.98;83.47;101471.03;5077238;28;45518;-44
2023/12/07 03:28:45;;;;;;;;;29.75;21.25;;;;;4.94;83.95;101456.31;5076528;28;46298;-44
2023/12/07 03:31:10;;;;;;;;;23.00;19.75;;;;;4.95;83.93;101447.47;5076981;28;45359;-45
2023/12/07 03:33:36;;;;;;;;;38.00;25.00;;;;;4.93;83.59;101446.69;5076383;28;45246;-45
2023/12/07 03:36:02;;;;;;;;;30.50;22.00;;;;;4.90;83.66;101466.22;5077100;28;45411;-45
2023/12/07 03:38:27;;;;;;;;;25.50;23.75;;;;;4.84;84.34;101471.00;5058384;28;48413;-43
2023/12/07 03:40:53;;;;;;;;;31.75;25.25;;;;;4.83;84.45;101485.97;5076415;28;45363;-44
2023/12/07 03:43:19;;;;;;;;;23.00;20.75;;;;;4.78;84.29;101476.63;5077088;28;45336;-46
2023/12/07 03:45:45;;;;;;;;;25.00;20.50;;;;;4.91;84.05;101490.78;5076823;28;45529;-46
2023/12/07 03:48:10;;;;;;;;;26.75;21.25;;;;;4.93;84.79;101479.22;5076324;28;47141;-44
2023/12/07 03:50:35;;;;;;;;;31.75;23.00;;;;;4.94;84.67;101474.78;5076264;28;54383;-46
2023/12/07 03:53:01;;;;;;;;;19.25;17.50;;;;;4.92;84.30;101466.94;5076718;28;45315;-45
2023/12/07 03:55:26;;;;;;;;;30.75;21.75;;;;;4.88;84.42;101473.34;5076831;28;45475;-45
2023/12/07 03:57:51;;;;;;;;;25.50;13.50;;;;;4.90;85.32;101475.91;5076283;28;48196;-45
2023/12/07 04:00:17;;;;;;;;;22.75;15.25;;;;;4.89;84.73;101477.69;5076054;28;45406;-45
2023/12/07 04:02:42;;;;;;;;;29.75;23.25;;;;;4.97;83.78;101464.91;5076545;28;45261;-46
2023/12/07 04:05:08;;;;;;;;;25.50;19.25;;;;;4.98;84.38;101447.28;5076680;28;45264;-46
2023/12/07 04:07:34;;;;;;;;;30.50;24.50;;;;;4.97;84.27;101457.00;5076355;28;45913;-46
2023/12/07 04:09:59;;;;;;;;;33.00;19.25;;;;;4.96;83.97;101465.81;5075705;28;45295;-44
2023/12/07 04:12:25;;;;;;;;;21.50;17.75;;;;;4.97;84.54;101464.03;5058114;28;45331;-44
2023/12/07 04:14:51;;;;;;;;;30.50;11.50;;;;;4.96;84.40;101467.63;5079706;28;45289;-44
2023/12/07 04:17:17;;;;;;;;;25.25;20.00;;;;;4.99;84.83;101470.06;5080026;28;46236;-44
2023/12/07 04:19:42;;;;;;;;;23.25;21.50;;;;;4.97;84.45;101486.00;5079556;28;45346;-44
2023/12/07 04:22:07;;;;;;;;;27.75;17.00;;;;;4.99;84.35;101509.63;5080629;28;45266;-49
2023/12/07 04:24:33;;;;;;;;;15.00;12.00;;;;;5.04;84.18;101507.56;5080692;28;45307;-47
2023/12/07 04:26:58;;;;;;;;;28.75;23.50;;;;;5.05;84.36;101505.75;5079799;28;50941;-45
2023/12/07 04:29:23;;;;;;;;;28.00;21.75;;;;;5.02;84.91;101508.59;5079837;28;45371;-43
2023/12/07 04:31:48;;;;;;;;;32.00;22.25;;;;;5.05;83.49;101501.34;5079783;28;45359;-45
2023/12/07 04:34:14;;;;;;;;;21.50;17.75;;;;;5.02;84.07;101498.06;5079659;28;45366;-44
2023/12/07 04:36:39;;;;;;;;;27.00;17.50;;;;;4.99;84.07;101481.47;5079403;28;47635;-43
2023/12/07 04:39:04;;;;;;;;;30.50;18.75;;;;;5.02;84.17;101482.25;5079671;28;45389;-46
2023/12/07 04:41:30;;;;;;;;;17.25;17.25;;;;;5.02;83.82;101479.59;5079827;28;45382;-46
2023/12/07 04:43:55;;;;;;;;;28.75;22.25;;;;;5.03;83.87;101476.88;5080006;28;45401;-45
2023/12/07 04:46:20;;;;;;;;;23.75;18.75;;;;;5.04;84.11;101470.63;5079124;28;49014;-43
2023/12/07 04:48:46;;;;;;;;;32.75;18.00;;;;;4.99;83.53;101470.06;5079211;28;45326;-43
2023/12/07 04:51:11;;;;;;;;;23.00;17.25;;;;;4.94;84.06;101461.59;5079318;28;45403;-43
2023/12/07 04:53:36;;;;;;;;;27.25;18.75;;;;;4.91;84.12;101464.41;5079478;28;45470;-43
2023/12/07 04:56:02;;;;;;;;;23.75;18.50;;;;;4.90;83.67;101452.19;5061209;28;46463;-44
2023/12/07 04:58:27;;;;;;;;;23.00;20.00;;;;;4.80;83.77;101451.03;5078905;28;45395;-42
2023/12/07 05:00:53;;;;;;;;;24.50;20.50;;;;;4.43;84.81;101390.84;5079533;28;45461;-44
2023/12/07 05:03:18;;;;;;;;;21.50;16.75;;;;;4.81;84.26;101439.56;5079407;28;45228;-42
2023/12/07 05:05:43;;;;;;;;;27.50;22.75;;;;;4.82;83.84;101433.34;5078722;28;46618;-45
2023/12/07 05:08:09;;;;;;;;;25.00;20.00;;;;;4.82;84.22;101433.34;5079084;28;45311;-42
2023/12/07 05:10:34;;;;;;;;;25.25;18.75;;;;;4.75;83.85;101430.22;5078782;28;45511;-43
2023/12/07 05:12:59;;;;;;;;;24.25;18.75;;;;;4.77;84.15;101431.00;5078464;28;45504;-42
2023/12/07 05:15:25;;;;;;;;;22.50;21.50;;;;;4.73;84.19;101406.59;5078544;28;45513;-42
2023/12/07 05:17:50;;;;;;;;;26.00;19.25;;;;;4.75;84.40;101414.41;5078857;28;45373;-43
2023/12/07 05:20:16;;;;;;;;;31.25;21.50;;;;;4.62;84.39;101385.31;5078399;28;45249;-43
2023/12/07 05:22:41;;;;;;;;;33.75;23.50;;;;;4.81;84.17;101402.66;5079043;28;45364;-44
2023/12/07 05:25:06;;;;;;;;;26.75;19.00;;;;;4.81;83.68;101400.03;5077803;28;45408;-43
2023/12/07 05:27:32;;;;;;;;;19.00;16.50;;;;;4.86;83.88;101390.88;5077848;28;45460;-43
2023/12/07 05:29:57;;;;;;;;;29.50;22.75;;;;;4.84;83.68;101389.28;5078217;28;45257;-45
2023/12/07 05:32:22;;;;;;;;;25.50;23.50;;;;;4.82;83.40;101389.38;5078407;28;46898;-42
2023/12/07 05:34:48;;;;;;;;;25.25;17.75;;;;;4.75;83.77;101391.53;5078349;28;47021;-42
2023/12/07 05:37:13;;;;;;;;;23.25;18.75;;;;;4.77;83.53;101406.41;5078183;28;45353;-42
2023/12/07 05:39:38;;;;;;;;;26.50;21.75;;;;;4.74;82.92;101408.28;5078512;28;45307;-42
2023/12/07 05:42:04;;;;;;;;;26.50;22.25;;;;;4.72;83.57;101410.19;5078502;28;45339;-42
2023/12/07 05:44:30;;;;;;;;;23.00;18.25;;;;;4.77;83.15;101414.31;5078351;28;46155;-41
2023/12/07 05:46:57;;;;;;;;;27.75;18.50;;;;;4.78;83.79;101416.84;5059760;28;45943;-43
2023/12/07 05:49:23;;;;;;;;;21.25;17.00;;;;;4.81;82.58;101424.59;5078445;28;45378;-45
2023/12/07 05:51:48;;;;;;;;;24.75;16.00;;;;;4.78;82.95;101410.75;5060435;28;45249;-42
2023/12/07 05:54:14;;;;;;;;;19.25;17.00;;;;;4.80;83.60;101411.47;5078121;28;45844;-42
2023/12/07 05:56:40;;;;;;;;;27.00;21.25;;;;;4.83;83.15;101411.31;5078154;28;45326;-41
2023/12/07 05:59:06;;;;;;;;;24.25;19.25;;;;;4.84;83.18;101415.63;5078085;28;45442;-42
2023/12/07 06:01:31;;;;;;;;;20.00;19.00;;;;;4.86;83.01;101422.50;5078367;28;45552;-42
2023/12/07 06:03:57;;;;;;;;;17.75;16.75;;;;;4.85;82.34;101405.00;5077762;28;46928;-43
2023/12/07 06:06:23;;;;;;;;;20.00;15.00;;;;;4.83;82.79;101395.50;5077524;28;45571;-43
2023/12/07 06:08:48;;;;;;;;;24.75;19.75;;;;;4.84;82.81;101390.13;5078144;28;45351;-41
2023/12/07 06:11:13;;;;;;;;;23.75;22.25;;;;;4.84;82.80;101387.47;5077862;28;45367;-44
2023/12/07 06:13:38;;;;;;;;;24.75;16.00;;;;;4.83;82.43;101384.94;5077470;28;55581;-44
2023/12/07 06:16:04;;;;;;;;;20.00;17.00;;;;;4.81;82.96;101381.56;5077691;28;45408;-44
2023/12/07 06:18:30;;;;;;;;;21.75;19.00;;;;;4.69;83.30;101378.72;5077690;28;45423;-43
2023/12/07 06:20:55;;;;;;;;;19.25;18.50;;;;;4.74;83.06;101383.72;5077817;28;45392;-44
2023/12/07 06:23:21;;;;;;;;;23.25;19.25;;;;;4.78;83.55;101387.03;5077633;28;47018;-42
2023/12/07 06:25:46;;;;;;;;;18.50;15.75;;;;;4.80;82.76;101379.84;5077391;28;45437;-43
2023/12/07 06:28:12;;;;;;;;;16.50;14.00;;;;;4.80;82.61;101379.84;5077192;28;45347;-43
2023/12/07 06:30:38;;;;;;;;;19.00;16.00;;;;;4.82;83.17;101377.97;5077924;28;45387;-42
2023/12/07 06:33:03;;;;;;;;;20.25;16.00;;;;;4.83;82.47;101367.34;5077388;28;45301;-43
2023/12/07 06:35:29;;;;;;;;;22.75;17.75;;;;;4.85;83.02;101369.91;5077285;28;48962;-43
2023/12/07 06:37:54;;;;;;;;;28.25;18.75;;;;;4.85;82.22;101369.91;5076235;28;45334;-44
2023/12/07 06:40:20;;;;;;;;;28.75;17.50;;;;;4.85;82.35;101372.53;5077484;28;45213;-45
2023/12/07 06:42:45;;;;;;;;;20.00;16.75;;;;;4.84;81.78;101376.94;5076123;28;45478;-43
2023/12/07 06:45:14;;;;;;;;;25.50;16.25;;;;;4.82;82.93;101373.56;5077216;28;45251;-44
2023/12/07 06:47:39;;;;;;;;;35.00;24.00;;;;;4.80;83.08;101369.31;5077407;28;45382;-43
2023/12/07 06:50:08;;;;;;;;;29.75;21.00;;;;;4.79;82.69;101362.34;5077098;28;45467;-42
2023/12/07 06:52:33;;;;;;;;;23.00;18.00;;;;;4.82;82.59;101362.16;5077218;28;45245;-43
2023/12/07 06:54:59;;;;;;;;;22.25;15.00;;;;;4.83;82.79;101354.16;5077051;28;45223;-43
2023/12/07 06:57:24;;;;;;;;;30.50;22.00;;;;;4.88;82.52;101345.97;5077440;28;45391;-43
2023/12/07 06:59:49;;;;;;;;;26.75;22.00;;;;;4.93;82.21;101341.25;5077337;28;45442;-44
2023/12/07 07:02:14;;;;;;;;;21.25;18.00;;;;;4.91;82.39;101343.16;5057960;28;45372;-44
2023/12/07 07:04:40;;;;;;;;;21.00;17.75;;;;;4.49;82.44;101271.06;5077217;28;45347;-43
2023/12/07 07:07:05;;;;;;;;;14.75;10.00;;;;;4.82;82.20;101336.66;5077154;28;45425;-44
2023/12/07 07:09:30;;;;;;;;;22.50;15.00;;;;;4.74;82.60;101329.22;5077477;28;45315;-42
2023/12/07 07:11:56;;;;;;;;;19.50;16.50;;;;;4.81;83.13;101332.34;5058124;28;45571;-44
2023/12/07 07:14:21;;;;;;;;;18.00;17.00;;;;;4.79;82.37;101328.94;5077253;28;45349;-44
2023/12/07 07:16:46;;;;;;;;;26.75;14.75;;;;;4.80;82.72;101340.31;5077079;28;45312;-44
2023/12/07 07:19:13;;;;;;;;;20.25;13.00;;;;;4.82;81.92;101327.91;5077193;28;45164;-44
2023/12/07 07:21:39;;;;;;;;;17.50;14.00;;;;;4.88;81.95;101341.53;5076950;28;46209;-45
2023/12/07 07:24:04;;;;;;;;;28.00;16.50;;;;;4.90;82.31;101352.84;5076768;28;45388;-44
2023/12/07 07:26:29;;;;;;;;;12.00;11.50;;;;;4.92;82.15;101353.59;5077197;28;45446;-43
2023/12/07 07:28:55;;;;;;;;;19.25;16.75;;;;;4.94;82.61;101348.22;5076802;28;45310;-42
2023/12/07 07:31:20;;;;;;;;;18.50;15.75;;;;;4.98;82.01;101352.38;5076952;28;45486;-44
2023/12/07 07:33:47;;;;;;;;;20.00;17.75;;;;;5.01;81.89;101360.06;5077016;28;45323;-44
2023/12/07 07:36:14;;;;;;;;;22.50;17.75;;;;;5.00;81.32;101367.13;5076796;28;45326;-44
2023/12/07 07:38:40;;;;;;;;;14.50;11.75;;;;;5.05;80.83;101368.63;5077026;28;45465;-44
2023/12/07 07:41:05;;;;;;;;;24.75;16.75;;;;;5.05;81.74;101372.13;5076632;28;45357;-43
2023/12/07 07:43:30;;;;;;;;;14.75;14.75;;;;;5.03;81.46;101365.25;5076751;28;45305;-42
2023/12/07 07:45:56;;;;;;;;;25.50;20.25;;;;;5.02;81.30;101350.41;5076791;28;45311;-42
2023/12/07 07:48:21;;;;;;;;;18.50;16.50;;;;;5.00;81.90;101345.19;5075488;28;45222;-43
2023/12/07 07:50:47;;;;;;;;;28.25;20.75;;;;;5.05;81.75;101352.81;5076307;28;45332;-43
2023/12/07 07:53:12;;;;;;;;;17.75;14.75;;;;;5.03;81.38;101347.66;5076616;28;45400;-44
2023/12/07 07:55:38;;;;;;;;;23.25;17.00;;;;;4.99;81.96;101339.09;5076663;28;45322;-44
2023/12/07 07:58:03;;;;;;;;;22.75;18.50;;;;;5.04;81.82;101340.59;5076820;28;45438;-42
2023/12/07 08:00:28;;;;;;;;;25.25;17.75;;;;;5.06;81.39;101344.84;5076095;28;52096;-43
2023/12/07 08:02:53;;;;;;;;;23.25;17.75;;;;;5.06;81.46;101338.72;5076427;28;45355;-42
2023/12/07 08:05:19;;;;;;;;;24.25;19.75;;;;;5.10;81.21;101338.41;5076674;28;45363;-41
2023/12/07 08:07:44;;;;;;;;;23.25;17.75;;;;;5.15;81.10;101338.13;5076510;28;45938;-41
2023/12/07 08:10:09;;;;;;;;;21.00;19.75;;;;;5.22;81.00;101344.69;5076413;28;46127;-42
2023/12/07 08:12:35;;;;;;;;;31.50;22.00;;;;;5.30;80.63;101328.38;5076253;28;45319;-42
2023/12/07 08:15:00;;;;;;;;;23.75;16.25;;;;;5.20;80.61;101321.06;5076420;28;45433;-43
2023/12/07 08:17:26;;;;;;;;;18.50;18.50;;;;;5.26;80.46;101309.25;5076482;28;45564;-42
2023/12/07 08:19:52;;;;;;;;;21.25;18.00;;;;;5.25;80.42;101307.56;5075464;28;45393;-42
2023/12/07 08:22:17;;;;;;;;;20.00;17.75;;;;;5.16;80.57;101293.19;5076130;28;45377;-42
2023/12/07 08:24:43;;;;;;;;;20.25;17.50;;;;;5.19;80.28;101306.19;5076303;28;45452;-42
2023/12/07 08:27:08;;;;;;;;;20.25;18.00;;;;;5.20;80.42;101301.75;5076417;28;45507;-42
2023/12/07 08:29:34;;;;;;;;;24.50;15.00;;;;;5.17;80.12;101294.03;5075882;28;45358;-41
2023/12/07 08:31:59;;;;;;;;;19.25;17.50;;;;;5.16;80.12;101282.63;5075981;28;45780;-42
2023/12/07 08:34:25;;;;;;;;;23.75;18.50;;;;;5.08;80.42;101281.44;5076245;28;45330;-42
2023/12/07 08:36:50;;;;;;;;;18.25;16.25;;;;;5.10;80.52;101280.41;5076122;28;45257;-41
2023/12/07 08:39:16;;;;;;;;;18.25;14.75;;;;;5.05;81.02;101264.00;5057731;28;46049;-41
2023/12/07 08:41:41;;;;;;;;;23.75;20.25;;;;;5.08;80.70;101268.25;5075714;28;45414;-42
2023/12/07 08:44:06;;;;;;;;;17.75;16.75;;;;;5.13;81.07;101272.28;5076048;28;45449;-44
2023/12/07 08:46:32;;;;;;;;;20.50;18.00;;;;;5.13;80.04;101272.28;5076233;28;45359;-42
2023/12/07 08:48:57;;;;;;;;;28.50;21.00;;;;;5.15;80.34;101273.03;5075705;28;51760;-42
2023/12/07 08:51:23;;;;;;;;;17.00;14.25;;;;;5.17;79.66;101281.69;5075792;28;45412;-42
2023/12/07 08:53:49;;;;;;;;;24.00;11.75;;;;;5.20;79.80;101272.75;5075882;28;45486;-42
2023/12/07 08:56:15;;;;;;;;;22.00;18.25;;;;;5.26;78.88;101270.53;5064742;27;45590;-43
2023/12/07 08:58:41;;;;;;;;;18.50;16.50;;;;;5.25;79.22;101268.84;5068962;28;46628;-42
2023/12/07 09:01:06;;;;;;;;;17.00;8.00;;;;;5.36;79.32;101269.97;5074170;28;45505;-42
2023/12/07 09:03:32;;;;;;;;;26.00;19.75;;;;;5.39;79.02;101260.03;5091969;27;45458;-43
2023/12/07 09:05:59;;;;;;;;;19.50;18.50;;;;;5.34;78.50;101232.25;5076457;28;45367;-41
2023/12/07 09:08:24;;;;;;;;;22.00;17.00;;;;;5.43;78.89;101240.41;5075716;27;47239;-43
2023/12/07 09:10:51;;;;;;;;;17.75;13.50;;;;;5.50;78.64;101241.69;5076405;28;45208;-41
2023/12/07 09:13:17;;;;;;;;;20.25;12.50;;;;;5.57;78.54;101241.31;5076284;27;45802;-42
2023/12/07 09:15:42;;;;;;;;;28.25;18.50;;;;;5.61;77.98;101243.63;5076264;28;45327;-41
2023/12/07 09:18:07;;;;;;;;;15.00;14.00;;;;;5.62;77.82;101229.50;5075794;28;47068;-42
2023/12/07 09:20:33;;;;;;;;;20.00;19.75;;;;;5.83;77.05;101239.56;5091469;27;45449;-42
2023/12/07 09:22:58;;;;;;;;;14.75;9.75;;;;;5.92;76.47;101231.03;5075913;27;45805;-42
2023/12/07 09:25:27;;;;;;;;;18.25;14.25;;;;;5.95;76.51;101215.00;5076402;27;45471;-41
2023/12/07 09:27:53;;;;;;;;;18.00;16.75;;;;;6.00;75.93;101205.78;5073404;27;46422;-41
2023/12/07 09:30:18;;;;;;;;;20.50;18.00;;;;;6.04;75.67;101198.50;5072193;27;45350;-41
2023/12/07 09:32:43;;;;;;;;;14.50;11.00;;;;;6.09;75.46;101196.38;5075945;28;45450;-41
2023/12/07 09:35:19;;;;;;;;;12.75;11.00;;;;;6.17;74.96;101183.47;5076271;28;45284;-43
2023/12/07 09:37:48;;;;;;;;;25.00;18.75;;;;;6.28;74.31;101190.66;5075238;27;45439;-43
2023/12/07 09:40:16;;;;;;;;;26.75;15.75;;;;;6.33;74.45;101195.63;5049307;28;45454;-43
2023/12/07 09:42:42;;;;;;;;;25.50;15.25;;;;;6.38;74.06;101198.78;5057081;28;45268;-42
2023/12/07 09:45:08;;;;;;;;;14.00;8.50;;;;;6.31;73.96;101192.22;5075784;28;45739;-44
2023/12/07 09:47:37;;;;;;;;;19.00;13.00;;;;;6.41;74.09;101188.84;5075357;28;45417;-44
2023/12/07 09:50:03;;;;;;;;;20.25;15.50;;;;;6.40;73.25;101183.66;5075703;28;45482;-46
2023/12/07 09:52:28;;;;;;;;;14.00;11.00;;;;;6.43;73.56;101175.50;5075346;28;45549;-45
2023/12/07 09:54:56;;;;;;;;;17.25;16.25;;;;;6.44;73.41;101171.91;5075599;28;45453;-45
2023/12/07 09:57:22;;;;;;;;;19.75;17.50;;;;;6.45;73.43;101163.06;5075894;28;47294;-42
2023/12/07 09:59:48;;;;;;;;;21.75;13.00;;;;;6.52;72.54;101164.28;5075315;28;45461;-41
2023/12/07 10:02:14;;;;;;;;;16.00;13.25;;;;;6.52;72.92;101153.69;5075648;28;45657;-42
2023/12/07 10:04:39;;;;;;;;;14.00;11.25;;;;;6.47;72.53;101139.97;5075692;28;45564;-43
2023/12/07 10:07:08;;;;;;;;;20.00;17.25;;;;;6.41;72.85;101132.50;5074551;28;46351;-43
2023/12/07 10:09:34;;;;;;;;;19.00;16.25;;;;;6.40;73.14;101141.38;5075170;28;45415;-43
2023/12/07 10:12:04;;;;;;;;;15.25;13.50;;;;;6.40;72.96;101126.34;5074848;28;45391;-45
2023/12/07 10:14:29;;;;;;;;;11.50;10.50;;;;;6.41;72.58;101114.84;5075604;28;45264;-44
2023/12/07 10:16:56;;;;;;;;;20.75;16.25;;;;;6.36;72.34;101110.84;5074882;28;45618;-44
2023/12/07 10:19:22;;;;;;;;;14.25;13.75;;;;;6.37;72.16;101113.38;5075145;28;45289;-44
2023/12/07 10:21:49;;;;;;;;;18.50;15.00;;;;;6.37;72.81;101107.25;5075239;28;45371;-43
2023/12/07 10:24:20;;;;;;;;;18.25;13.25;;;;;6.35;72.45;101109.16;5075442;28;45375;-42
2023/12/07 10:26:48;;;;;;;;;16.25;13.25;;;;;6.27;72.38;101100.94;5074191;27;45384;-44
2023/12/07 10:29:13;;;;;;;;;15.25;8.00;;;;;6.27;72.79;101111.50;5074098;28;45474;-44
2023/12/07 10:31:38;;;;;;;;;20.50;13.25;;;;;6.22;72.52;101099.47;5074412;28;45703;-42
2023/12/07 10:34:07;;;;;;;;;12.50;11.25;;;;;6.25;72.47;101087.84;5074891;28;45416;-43
2023/12/07 10:36:32;;;;;;;;;18.25;15.00;;;;;6.21;73.09;101094.31;5074849;27;45430;-41
2023/12/07 10:38:58;;;;;;;;;16.00;14.00;;;;;6.16;72.89;101092.00;5073820;27;45820;-41
2023/12/07 10:41:25;;;;;;;;;14.75;13.50;;;;;6.22;72.92;101093.34;5054728;28;45404;-42
2023/12/07 10:43:59;;;;;;;;;12.00;11.50;;;;;6.24;73.06;101096.72;5054822;28;45576;-42
2023/12/07 10:46:25;;;;;;;;;14.50;13.50;;;;;6.28;72.50;101087.63;5053931;28;46661;-44
2023/12/07 10:48:59;;;;;;;;;19.75;12.50;;;;;6.26;72.54;101073.69;5054633;28;45236;-42
2023/12/07 10:51:34;;;;;;;;;15.50;11.50;;;;;6.25;73.15;101072.00;5065538;28;45414;-42
2023/12/07 10:54:03;;;;;;;;;12.00;10.75;;;;;6.18;72.59;101055.72;5074560;28;45407;-43
2023/12/07 10:56:32;;;;;;;;;15.75;14.00;;;;;6.11;73.17;101061.56;5074457;28;47203;-42
2023/12/07 10:58:58;;;;;;;;;13.50;12.00;;;;;6.13;72.94;101068.44;5074239;28;45477;-43
2023/12/07 11:01:25;;;;;;;;;17.00;14.25;;;;;6.16;72.68;101065.56;5074443;27;45518;-43
2023/12/07 11:03:53;;;;;;;;;19.50;12.00;;;;;6.20;73.04;101048.56;5075175;28;45724;-43
2023/12/07 11:06:18;;;;;;;;;17.75;12.50;;;;;6.15;73.13;101021.63;5074526;28;46098;-43
2023/12/07 11:08:55;;;;;;;;;15.00;12.50;;;;;6.29;72.32;101025.91;5073875;28;45446;-41
2023/12/07 11:11:42;;;;;;;;;13.75;13.50;;;;;6.29;72.28;101027.72;5075105;28;45315;-43